Observations for Trim Market St
| Time | AQI | Temp °C | Hum % | Pres Pa | CO μg/m³ | H₂S μg/m³ | NO μg/m³ | NO₂ μg/m³ | O₃ μg/m³ | SO₂ μg/m³ | PM1 μg/m³ | PM2.5 μg/m³ | PM10 μg/m³ |
|---|---|---|---|---|---|---|---|---|---|---|---|---|---|
| Sunday 16 August 2026 | |||||||||||||
| 21:53 | 2 | 19.3 | 78 | 2,147,483,647 | 0.07 | 0 | 1.77 | 4.42 | 60.09 | 0 | 0.71 | 1.71 | 4.65 |
| 21:52 | 2 | 19.3 | 78 | 2,147,483,647 | 0.05 | 0 | 1.77 | 11.49 | 57.09 | 0 | 0.71 | 1.71 | 4.07 |
| 21:51 | 2 | 19.4 | 78 | 2,147,483,647 | 0.05 | 0 | 1.77 | 2.96 | 51.19 | 0 | 0.71 | 1.71 | 4.07 |
| 21:50 | 2 | 19.4 | 78 | 2,147,483,647 | 0.08 | 0 | 1.68 | 3.75 | 54.47 | 0 | 0.71 | 2.19 | 5.8 |
| 21:49 | 2 | 19.4 | 78 | 2,147,483,647 | 0.13 | 0 | 1.61 | 5.18 | 54.36 | 0 | 0.71 | 2.19 | 4.64 |
| 21:48 | 2 | 19.4 | 78 | 2,147,483,647 | 0.28 | 0 | 1.51 | 2.67 | 61.07 | 0 | 0 | 2.19 | 5.8 |
| 21:45 | 3 | 19.4 | 78 | 2,147,483,647 | 0.48 | 0 | 1.62 | 2.67 | 57.85 | 0 | 0.71 | 1.73 | 4.63 |
| 21:38 | 3 | 19.5 | 78 | 2,147,483,647 | 0.03 | 0 | 1.45 | 3.4 | 63.68 | 0 | 0.71 | 1.27 | 3.46 |
| 21:37 | 3 | 19.5 | 78 | 2,147,483,647 | 0.01 | 0 | 1.38 | 5.06 | 55.32 | 0 | 0 | 1.75 | 4.04 |
| 21:35 | 3 | 19.5 | 77 | 275 | 0.01 | 0 | 1.54 | 6.75 | 62.34 | 0 | 0.71 | 1.75 | 4.03 |
| 21:30 | 3 | 19.6 | 77 | 5,562 | 0.01 | 0 | 1.51 | 4.26 | 64.64 | 0 | 0.71 | 2.24 | 4.61 |
| 21:29 | 3 | 19.6 | 77 | 6,712 | 0.03 | 0 | 1.5 | 6.15 | 54.46 | 0 | 0 | 1.77 | 4.02 |
| 21:28 | 3 | 19.6 | 77 | 7,744 | 0.02 | 0 | 1.49 | 3.66 | 60.78 | 0 | 0 | 1.78 | 5.77 |
| 21:27 | 3 | 19.7 | 77 | 8,611 | 0.01 | 0 | 1.45 | 4.01 | 59.62 | 0 | 1.43 | 3.21 | 6.36 |
| 21:26 | 3 | 19.7 | 77 | 9,556 | 0.03 | 0 | 1.37 | 3.68 | 62.89 | 0 | 0 | 1.3 | 4.01 |
| 21:25 | 3 | 19.7 | 77 | 10,531 | 0.1 | 0 | 1.39 | 2.57 | 58.5 | 0 | 0.71 | 2.26 | 4.6 |
| 21:24 | 3 | 19.7 | 77 | 11,539 | 0.21 | 0 | 1.55 | 5.3 | 58.15 | 0 | 0.71 | 2.26 | 4.6 |
| 21:23 | 3 | 19.7 | 77 | 12,590 | 0.23 | 0 | 1.44 | 3.49 | 56.79 | 0 | 1.43 | 2.74 | 5.18 |
| 21:21 | 3 | 19.7 | 76 | 14,719 | 0.02 | 0 | 1.5 | 4.31 | 61.85 | 0 | 0 | 2.27 | 4.59 |
| 21:18 | 3 | 19.8 | 76 | 18,531 | 0 | 0 | 1.62 | 6.81 | 62.04 | 0 | 0 | 1.81 | 3.99 |